createdAt,value
2022-12-31T00:01:16.108Z,100.00
2022-12-31T00:03:44.998Z,100.00
2022-12-31T00:06:17.703Z,100.00
2022-12-31T00:08:46.364Z,100.00
2022-12-31T00:11:14.714Z,100.00
2022-12-31T00:13:42.668Z,100.00
2022-12-31T00:16:23.332Z,100.00
2022-12-31T00:18:53.629Z,100.00
2022-12-31T00:21:22.982Z,100.00
2022-12-31T00:23:50.941Z,100.00
2022-12-31T00:26:23.042Z,100.00
2022-12-31T00:28:50.706Z,100.00
2022-12-31T00:31:21.622Z,100.00
2022-12-31T00:33:49.784Z,100.00
2022-12-31T00:36:22.919Z,100.00
2022-12-31T00:38:52.197Z,100.00
2022-12-31T00:41:21.735Z,100.00
2022-12-31T00:43:50.436Z,100.00
2022-12-31T00:46:18.974Z,100.00
2022-12-31T00:48:47.138Z,100.00
2022-12-31T00:51:18.343Z,100.00
2022-12-31T00:53:46.236Z,100.00
2022-12-31T00:56:23.458Z,100.00
2022-12-31T00:58:52.026Z,100.00
2022-12-31T01:01:23.573Z,100.00
2022-12-31T01:03:54.923Z,100.00
2022-12-31T01:06:23.129Z,100.00
2022-12-31T01:08:51.911Z,100.00
2022-12-31T01:11:20.541Z,100.00
2022-12-31T01:13:58.767Z,100.00
2022-12-31T01:16:30.823Z,100.00
2022-12-31T01:19:03.515Z,100.00
2022-12-31T01:21:31.554Z,100.00
2022-12-31T01:24:00.038Z,100.00
2022-12-31T01:26:28.449Z,100.00
2022-12-31T01:28:56.090Z,100.00
2022-12-31T01:31:25.350Z,100.00
2022-12-31T01:33:53.819Z,100.00
2022-12-31T01:36:26.289Z,100.00
2022-12-31T01:38:55.838Z,100.00
2022-12-31T01:41:26.861Z,100.00
2022-12-31T01:43:59.732Z,100.00
2022-12-31T01:46:38.335Z,100.00
2022-12-31T01:49:21.064Z,100.00
2022-12-31T01:51:55.324Z,100.00
2022-12-31T01:54:26.164Z,100.00
2022-12-31T01:56:55.049Z,100.00
2022-12-31T01:59:24.894Z,100.00
2022-12-31T02:01:55.796Z,100.00
2022-12-31T02:04:26.136Z,100.00
2022-12-31T02:07:06.432Z,100.00
2022-12-31T02:09:36.923Z,100.00
2022-12-31T02:12:05.045Z,100.00
2022-12-31T02:14:35.706Z,100.00
2022-12-31T02:17:08.827Z,100.00
2022-12-31T02:19:55.056Z,100.00
2022-12-31T02:22:41.292Z,100.00
2022-12-31T02:25:12.276Z,100.00
2022-12-31T02:27:58.113Z,100.00
2022-12-31T02:30:27.758Z,100.00
2022-12-31T02:33:06.871Z,100.00
2022-12-31T02:35:44.433Z,100.00
2022-12-31T02:38:22.110Z,100.00
2022-12-31T02:40:50.312Z,100.00
2022-12-31T02:43:17.936Z,100.00
2022-12-31T02:45:57.563Z,100.00
2022-12-31T02:48:45.437Z,100.00
2022-12-31T02:51:25.169Z,100.00
2022-12-31T02:54:20.655Z,100.00
2022-12-31T02:57:04.859Z,100.00
2022-12-31T03:00:02.850Z,100.00
2022-12-31T03:02:34.384Z,100.00
2022-12-31T03:05:03.616Z,100.00
2022-12-31T03:07:33.272Z,100.00
2022-12-31T03:10:02.174Z,100.00
2022-12-31T03:12:47.751Z,100.00
2022-12-31T03:15:21.422Z,100.00
2022-12-31T03:17:54.948Z,100.00
2022-12-31T03:20:44.209Z,100.00
2022-12-31T03:23:15.098Z,100.00
2022-12-31T03:25:44.775Z,100.00
2022-12-31T03:28:15.604Z,100.00
2022-12-31T03:30:46.072Z,100.00
2022-12-31T03:33:13.859Z,100.00
2022-12-31T03:35:43.035Z,100.00
2022-12-31T03:38:10.772Z,100.00
2022-12-31T03:40:45.319Z,100.00
2022-12-31T03:43:13.258Z,100.00
2022-12-31T03:45:41.119Z,100.00
2022-12-31T03:48:10.778Z,100.00
2022-12-31T03:50:38.541Z,100.00
2022-12-31T03:53:06.716Z,100.00
2022-12-31T03:55:34.518Z,100.00
2022-12-31T03:58:02.144Z,100.00
2022-12-31T04:00:30.101Z,100.00
2022-12-31T04:02:57.875Z,100.00
2022-12-31T04:05:25.780Z,100.00
2022-12-31T04:07:53.467Z,100.00
2022-12-31T04:10:21.624Z,100.00
2022-12-31T04:12:49.421Z,100.00
2022-12-31T04:15:20.308Z,100.00
2022-12-31T04:17:48.979Z,99.70
2022-12-31T04:20:17.360Z,98.99
2022-12-31T04:22:45.261Z,99.03
2022-12-31T04:25:14.081Z,98.09
2022-12-31T04:27:44.569Z,97.64
2022-12-31T04:30:14.433Z,95.18
2022-12-31T04:32:42.794Z,96.83
2022-12-31T04:35:11.737Z,94.96
2022-12-31T04:37:39.778Z,96.14
2022-12-31T04:40:08.897Z,95.24
2022-12-31T04:42:37.033Z,95.84
2022-12-31T04:45:05.983Z,95.68
2022-12-31T04:47:33.694Z,94.70
2022-12-31T04:50:01.323Z,94.53
2022-12-31T04:52:29.038Z,94.72
2022-12-31T04:54:56.678Z,94.48
2022-12-31T04:57:24.332Z,93.85
2022-12-31T04:59:52.012Z,93.89
2022-12-31T05:02:19.901Z,91.93
2022-12-31T05:04:47.683Z,92.96
2022-12-31T05:07:15.344Z,92.50
2022-12-31T05:09:43.016Z,93.46
2022-12-31T05:12:10.617Z,88.82
2022-12-31T05:14:38.280Z,89.82
2022-12-31T05:17:05.979Z,90.67
2022-12-31T05:19:33.693Z,89.65
2022-12-31T05:22:19.972Z,90.05
2022-12-31T05:24:47.679Z,90.13
2022-12-31T05:27:15.318Z,90.17
2022-12-31T05:29:43.021Z,90.60
2022-12-31T05:32:10.715Z,88.68
2022-12-31T05:34:38.437Z,89.21
2022-12-31T05:37:06.085Z,89.08
2022-12-31T05:39:33.746Z,89.26
2022-12-31T05:42:01.533Z,88.99
2022-12-31T05:44:29.183Z,89.09
2022-12-31T05:46:56.924Z,88.99
2022-12-31T05:49:24.633Z,88.89
2022-12-31T05:51:52.284Z,89.03
2022-12-31T05:54:20.050Z,89.38
2022-12-31T05:56:47.704Z,89.41
2022-12-31T05:59:15.444Z,89.62
2022-12-31T06:01:43.199Z,89.56
2022-12-31T06:04:10.948Z,89.54
2022-12-31T06:06:38.650Z,89.41
2022-12-31T06:09:06.524Z,89.50
2022-12-31T06:11:34.312Z,89.29
2022-12-31T06:14:02.096Z,89.45
2022-12-31T06:16:30.069Z,89.19
2022-12-31T06:18:57.738Z,89.06
2022-12-31T06:21:25.378Z,87.71
2022-12-31T06:23:52.964Z,88.48
2022-12-31T06:26:20.779Z,88.63
2022-12-31T06:28:48.551Z,88.50
2022-12-31T06:31:16.463Z,88.61
2022-12-31T06:33:44.247Z,88.52
2022-12-31T06:36:15.612Z,88.50
2022-12-31T06:38:44.754Z,88.42
2022-12-31T06:41:14.801Z,88.10
2022-12-31T06:43:43.914Z,87.66
2022-12-31T06:46:14.430Z,87.41
2022-12-31T06:48:44.211Z,87.19
2022-12-31T06:51:17.255Z,87.24
2022-12-31T06:53:46.978Z,86.85
2022-12-31T06:56:33.023Z,86.61
2022-12-31T06:59:02.039Z,86.70
2022-12-31T07:01:42.968Z,87.33
2022-12-31T07:04:13.342Z,87.07
2022-12-31T07:06:53.034Z,87.58
2022-12-31T07:09:34.475Z,87.91
2022-12-31T07:12:07.934Z,88.02
2022-12-31T07:14:55.700Z,88.34
2022-12-31T07:17:30.367Z,88.49
2022-12-31T07:20:00.751Z,88.36
2022-12-31T07:22:28.658Z,88.81
2022-12-31T07:24:56.675Z,89.00
2022-12-31T07:27:42.831Z,88.74
2022-12-31T07:30:16.508Z,89.09
2022-12-31T07:33:14.841Z,89.18
2022-12-31T07:36:11.567Z,87.89
2022-12-31T07:39:01.897Z,88.64
2022-12-31T07:41:42.297Z,88.68
2022-12-31T07:44:22.093Z,89.43
2022-12-31T07:46:57.724Z,89.72
2022-12-31T07:49:26.858Z,89.99
2022-12-31T07:51:55.665Z,90.33
2022-12-31T07:54:23.688Z,90.53
2022-12-31T07:56:51.833Z,90.78
2022-12-31T07:59:57.701Z,90.91
2022-12-31T08:02:40.313Z,91.04
2022-12-31T08:05:24.454Z,91.40
2022-12-31T08:08:21.563Z,91.66
2022-12-31T08:10:58.937Z,91.92
2022-12-31T08:13:26.822Z,92.29
2022-12-31T08:15:54.912Z,92.54
2022-12-31T08:18:22.932Z,92.85
2022-12-31T08:21:01.740Z,93.07
2022-12-31T08:23:44.511Z,93.44
2022-12-31T08:27:03.604Z,93.70
2022-12-31T08:29:41.103Z,93.92
2022-12-31T08:32:31.586Z,94.22
2022-12-31T08:35:26.312Z,94.74
2022-12-31T08:38:21.304Z,94.90
2022-12-31T08:41:02.443Z,95.09
2022-12-31T08:43:50.684Z,95.40
2022-12-31T08:46:34.443Z,95.52
2022-12-31T08:49:02.399Z,95.65
2022-12-31T08:51:30.311Z,95.84
2022-12-31T08:53:58.483Z,95.93
2022-12-31T08:57:00.231Z,96.11
2022-12-31T08:59:42.990Z,95.83
2022-12-31T09:02:36.072Z,95.91
2022-12-31T09:05:06.725Z,95.67
2022-12-31T09:07:39.263Z,95.89
2022-12-31T09:10:19.300Z,95.72
2022-12-31T09:13:09.784Z,95.61
2022-12-31T09:15:43.621Z,95.03
2022-12-31T09:18:13.866Z,95.37
2022-12-31T09:20:43.803Z,95.25
2022-12-31T09:23:14.352Z,95.27
2022-12-31T09:25:52.567Z,95.04
2022-12-31T09:28:44.351Z,94.66
2022-12-31T09:31:22.823Z,94.19
2022-12-31T09:34:38.371Z,94.32
2022-12-31T09:37:19.090Z,93.53
2022-12-31T09:39:49.084Z,93.67
2022-12-31T09:42:34.854Z,93.92
2022-12-31T09:45:21.151Z,93.40
2022-12-31T09:48:07.496Z,93.68
2022-12-31T09:50:55.117Z,93.58
2022-12-31T09:53:43.887Z,93.26
2022-12-31T09:57:09.016Z,92.66
2022-12-31T09:59:47.363Z,92.74
2022-12-31T10:02:38.968Z,92.73
2022-12-31T10:05:25.231Z,92.62
2022-12-31T10:08:17.320Z,92.56
2022-12-31T10:11:07.416Z,92.78
2022-12-31T10:13:56.678Z,91.87
2022-12-31T10:16:45.041Z,91.45
2022-12-31T10:19:35.358Z,90.25
2022-12-31T10:22:23.978Z,88.25
2022-12-31T10:25:03.516Z,86.59
2022-12-31T10:27:56.144Z,85.08
2022-12-31T10:30:25.460Z,86.67
2022-12-31T10:33:11.702Z,87.00
2022-12-31T10:36:01.253Z,85.86
2022-12-31T10:38:36.688Z,82.82
2022-12-31T10:41:21.936Z,84.55
2022-12-31T10:44:11.341Z,84.87
2022-12-31T10:47:23.857Z,85.57
2022-12-31T10:50:17.168Z,81.80
2022-12-31T10:53:09.833Z,84.63
2022-12-31T10:56:14.793Z,82.40
2022-12-31T10:58:56.586Z,80.94
2022-12-31T11:01:50.367Z,77.59
2022-12-31T11:04:51.418Z,73.70
2022-12-31T11:07:48.762Z,73.38
2022-12-31T11:10:47.372Z,74.99
2022-12-31T11:13:26.838Z,75.74
2022-12-31T11:16:07.093Z,76.79
2022-12-31T11:18:56.640Z,77.59
2022-12-31T11:21:48.223Z,76.91
2022-12-31T11:24:54.404Z,77.84
2022-12-31T11:27:51.224Z,78.37
2022-12-31T11:30:46.877Z,78.37
2022-12-31T11:33:50.341Z,78.61
2022-12-31T11:36:56.103Z,80.15
2022-12-31T11:39:41.485Z,80.30
2022-12-31T11:42:28.088Z,80.22
2022-12-31T11:45:14.291Z,80.92
2022-12-31T11:48:28.968Z,81.28
2022-12-31T11:51:00.636Z,80.62
2022-12-31T11:53:40.254Z,80.72
2022-12-31T11:56:18.358Z,81.41
2022-12-31T11:58:50.522Z,81.37
2022-12-31T12:01:42.951Z,81.31
2022-12-31T12:04:12.400Z,80.75
2022-12-31T12:06:41.671Z,81.44
2022-12-31T12:09:17.852Z,81.20
2022-12-31T12:11:45.748Z,79.88
2022-12-31T12:14:31.131Z,79.57
2022-12-31T12:17:04.811Z,79.65
2022-12-31T12:19:35.408Z,80.16
2022-12-31T12:22:15.423Z,80.28
2022-12-31T12:24:57.415Z,80.09
2022-12-31T12:27:30.150Z,80.40
2022-12-31T12:29:58.066Z,80.73
2022-12-31T12:32:27.981Z,81.10
2022-12-31T12:34:55.689Z,80.69
2022-12-31T12:37:26.339Z,80.84
2022-12-31T12:40:12.021Z,80.77
2022-12-31T12:42:51.131Z,80.37
2022-12-31T12:45:20.522Z,80.68
2022-12-31T12:47:52.230Z,81.00
2022-12-31T12:50:23.396Z,80.83
2022-12-31T12:53:09.833Z,80.77
2022-12-31T12:56:38.791Z,80.94
2022-12-31T12:59:30.909Z,80.33
2022-12-31T13:02:32.838Z,80.78
2022-12-31T13:05:41.183Z,80.68
2022-12-31T13:08:55.615Z,80.58
2022-12-31T13:11:36.284Z,80.71
2022-12-31T13:14:45.304Z,81.04
2022-12-31T13:17:51.467Z,80.86
2022-12-31T13:20:31.198Z,81.21
2022-12-31T13:23:21.907Z,81.48
2022-12-31T13:26:17.477Z,81.22
2022-12-31T13:28:48.948Z,81.80
2022-12-31T13:31:23.011Z,82.42
2022-12-31T13:34:02.395Z,82.72
2022-12-31T13:36:33.929Z,82.38
2022-12-31T13:39:06.992Z,82.96
2022-12-31T13:41:47.725Z,82.99
2022-12-31T13:44:25.006Z,82.20
2022-12-31T13:47:02.861Z,82.34
2022-12-31T13:49:43.029Z,82.70
2022-12-31T13:52:30.987Z,83.15
2022-12-31T13:55:25.244Z,83.41
2022-12-31T13:58:11.432Z,82.78
2022-12-31T14:01:08.000Z,83.28
2022-12-31T14:04:17.348Z,82.53
2022-12-31T14:07:15.014Z,82.17
2022-12-31T14:09:43.540Z,82.17
2022-12-31T14:13:05.122Z,82.60
2022-12-31T14:15:38.537Z,81.76
2022-12-31T14:18:18.992Z,81.61
2022-12-31T14:20:55.199Z,81.89
2022-12-31T14:23:41.596Z,81.58
2022-12-31T14:26:27.071Z,81.16
2022-12-31T14:29:11.079Z,81.96
2022-12-31T14:31:50.577Z,81.87
2022-12-31T14:34:52.121Z,82.07
2022-12-31T14:37:24.758Z,82.27
2022-12-31T14:40:17.095Z,82.78
2022-12-31T14:42:57.034Z,82.93
2022-12-31T14:45:39.625Z,83.00
2022-12-31T14:48:41.307Z,83.21
2022-12-31T14:51:10.423Z,83.37
2022-12-31T14:53:38.221Z,83.81
2022-12-31T14:56:08.783Z,83.99
2022-12-31T14:58:38.407Z,84.26
2022-12-31T15:01:27.528Z,84.46
2022-12-31T15:03:58.889Z,84.15
2022-12-31T15:06:50.048Z,84.68
2022-12-31T15:09:36.180Z,84.69
2022-12-31T15:12:22.067Z,85.00
2022-12-31T15:15:34.094Z,85.18
2022-12-31T15:18:08.384Z,85.54
2022-12-31T15:20:58.671Z,85.93
2022-12-31T15:23:36.330Z,86.00
2022-12-31T15:26:05.709Z,86.47
2022-12-31T15:28:39.473Z,86.73
2022-12-31T15:31:21.173Z,86.94
2022-12-31T15:34:04.805Z,87.55
2022-12-31T15:36:39.689Z,87.77
2022-12-31T15:39:13.402Z,87.99
2022-12-31T15:42:18.608Z,88.12
2022-12-31T15:45:04.907Z,88.52
2022-12-31T15:47:40.899Z,88.69
2022-12-31T15:50:30.201Z,88.92
2022-12-31T15:53:04.148Z,89.26
2022-12-31T15:55:50.487Z,89.58
2022-12-31T15:58:22.341Z,89.67
2022-12-31T16:01:14.115Z,90.01
2022-12-31T16:04:02.711Z,90.21
2022-12-31T16:06:32.787Z,90.38
2022-12-31T16:09:00.671Z,90.50
2022-12-31T16:11:31.551Z,90.53
2022-12-31T16:14:00.874Z,90.53
2022-12-31T16:16:31.288Z,90.59
2022-12-31T16:19:00.203Z,90.46
2022-12-31T16:21:39.198Z,90.40
2022-12-31T16:24:24.978Z,90.35
2022-12-31T16:26:55.835Z,90.37
2022-12-31T16:29:25.278Z,90.19
2022-12-31T16:31:54.880Z,90.31
2022-12-31T16:34:25.512Z,90.18
2022-12-31T16:39:35.013Z,90.20
2022-12-31T16:42:14.440Z,90.56
2022-12-31T16:44:42.810Z,90.42
2022-12-31T16:47:16.279Z,90.66
2022-12-31T16:49:44.536Z,90.68
2022-12-31T16:52:40.135Z,90.83
2022-12-31T16:55:17.580Z,90.70
2022-12-31T16:57:48.716Z,90.99
2022-12-31T17:00:19.056Z,91.02
2022-12-31T17:02:54.347Z,91.30
2022-12-31T17:05:24.768Z,91.41
2022-12-31T17:07:53.064Z,91.54
2022-12-31T17:10:27.210Z,91.61
2022-12-31T17:13:27.845Z,91.78
2022-12-31T17:15:49.250Z,91.95
2022-12-31T17:18:23.730Z,91.97
2022-12-31T17:20:53.529Z,91.99
2022-12-31T17:23:27.975Z,91.99
2022-12-31T17:26:01.050Z,92.10
2022-12-31T17:28:38.943Z,92.24
2022-12-31T17:31:28.304Z,92.35
2022-12-31T17:34:25.439Z,92.24
2022-12-31T17:37:03.445Z,92.35
2022-12-31T17:39:52.635Z,92.15
2022-12-31T17:42:29.058Z,91.92
2022-12-31T17:45:17.392Z,92.25
2022-12-31T17:47:49.298Z,91.94
2022-12-31T17:50:27.934Z,92.12
2022-12-31T17:53:06.787Z,92.23
2022-12-31T17:55:34.878Z,92.29
2022-12-31T17:58:06.056Z,92.37
2022-12-31T18:00:35.300Z,92.41
2022-12-31T18:03:03.077Z,92.69
2022-12-31T18:05:30.851Z,92.68
2022-12-31T18:07:58.517Z,92.87
2022-12-31T18:10:28.907Z,93.05
2022-12-31T18:12:56.789Z,93.21
2022-12-31T18:15:25.821Z,93.20
2022-12-31T18:17:53.537Z,93.41
2022-12-31T18:20:21.351Z,93.47
2022-12-31T18:22:49.248Z,93.50
2022-12-31T18:28:02.483Z,93.46
2022-12-31T18:30:30.446Z,93.62
2022-12-31T18:32:58.432Z,93.59
2022-12-31T18:36:06.393Z,93.73
2022-12-31T18:38:15.396Z,93.68
2022-12-31T18:40:47.740Z,93.70
2022-12-31T18:43:19.833Z,93.76
2022-12-31T18:45:48.684Z,93.75
2022-12-31T18:48:16.988Z,93.93
2022-12-31T18:50:45.533Z,94.01
2022-12-31T18:53:24.439Z,94.03
2022-12-31T18:55:55.390Z,94.02
2022-12-31T18:58:23.531Z,93.94
2022-12-31T19:00:52.781Z,94.05
2022-12-31T19:03:28.404Z,94.16
2022-12-31T19:05:56.285Z,94.12
2022-12-31T19:08:24.765Z,93.94
2022-12-31T19:10:53.243Z,93.93
2022-12-31T19:13:21.699Z,93.91
2022-12-31T19:15:52.440Z,93.83
2022-12-31T19:18:20.292Z,93.81
2022-12-31T19:20:48.384Z,93.73
2022-12-31T19:23:19.432Z,93.64
2022-12-31T19:25:48.415Z,93.45
2022-12-31T19:28:21.511Z,93.52
2022-12-31T19:30:49.696Z,93.41
2022-12-31T19:33:17.904Z,93.36
2022-12-31T19:35:46.129Z,92.92
2022-12-31T19:38:20.255Z,92.85
2022-12-31T19:40:48.819Z,92.70
2022-12-31T19:43:18.653Z,92.75
2022-12-31T19:45:47.282Z,92.86
2022-12-31T19:48:18.465Z,92.76
2022-12-31T19:50:49.920Z,92.62
2022-12-31T19:53:20.897Z,92.67
2022-12-31T19:55:49.513Z,92.70
2022-12-31T19:58:26.561Z,92.67
2022-12-31T20:01:02.020Z,92.68
2022-12-31T20:03:32.251Z,92.71
2022-12-31T20:06:04.167Z,92.75
2022-12-31T20:08:31.872Z,92.96
2022-12-31T20:11:00.117Z,93.27
2022-12-31T20:13:28.145Z,93.28
2022-12-31T20:15:55.931Z,93.31
2022-12-31T20:18:24.327Z,93.35
2022-12-31T20:20:55.977Z,93.54
2022-12-31T20:23:23.849Z,93.70
2022-12-31T20:25:58.964Z,93.75
2022-12-31T20:28:27.017Z,93.94
2022-12-31T20:30:55.074Z,94.09
2022-12-31T20:33:23.638Z,94.26
2022-12-31T20:35:52.584Z,94.39
2022-12-31T20:38:20.211Z,94.39
2022-12-31T20:40:47.927Z,94.62
2022-12-31T20:43:15.572Z,94.64
2022-12-31T20:45:43.223Z,94.87
2022-12-31T20:48:10.949Z,94.94
2022-12-31T20:50:38.652Z,95.21
2022-12-31T20:53:06.351Z,95.26
2022-12-31T20:55:34.442Z,95.39
2022-12-31T20:58:02.079Z,95.48
2022-12-31T21:00:29.745Z,95.58
2022-12-31T21:03:08.072Z,95.73
2022-12-31T21:05:38.497Z,95.78
2022-12-31T21:08:06.282Z,95.86
2022-12-31T21:10:35.474Z,95.88
2022-12-31T21:13:03.150Z,96.17
2022-12-31T21:15:30.890Z,96.12
2022-12-31T21:18:00.290Z,96.27
2022-12-31T21:20:28.617Z,96.33
2022-12-31T21:22:56.290Z,96.53
2022-12-31T21:25:24.013Z,96.73
2022-12-31T21:27:51.725Z,97.18
2022-12-31T21:30:20.049Z,96.78
2022-12-31T21:32:48.189Z,97.02
2022-12-31T21:38:05.190Z,97.08
2022-12-31T21:40:32.992Z,97.27
2022-12-31T21:43:00.679Z,97.49
2022-12-31T21:45:28.349Z,97.76
2022-12-31T21:48:18.685Z,97.67
2022-12-31T21:50:53.940Z,97.90
2022-12-31T21:53:30.470Z,97.83
2022-12-31T21:56:10.167Z,97.78
2022-12-31T21:58:45.865Z,98.05
2022-12-31T22:01:38.452Z,98.25
2022-12-31T22:04:12.906Z,98.27
2022-12-31T22:06:49.960Z,98.30
2022-12-31T22:09:17.710Z,98.44
2022-12-31T22:11:45.487Z,98.38
2022-12-31T22:14:13.281Z,98.69
2022-12-31T22:16:41.072Z,98.79
2022-12-31T22:19:09.179Z,99.03
2022-12-31T22:21:36.859Z,99.06
2022-12-31T22:24:04.774Z,98.98
2022-12-31T22:26:32.466Z,99.36
2022-12-31T22:29:00.435Z,99.49
2022-12-31T22:31:31.119Z,99.46
2022-12-31T22:34:00.030Z,99.49
2022-12-31T22:36:27.807Z,99.26
2022-12-31T22:38:58.491Z,99.42
2022-12-31T22:41:27.497Z,99.38
2022-12-31T22:44:03.008Z,99.47
2022-12-31T22:46:31.693Z,99.51
2022-12-31T22:49:00.834Z,99.96
2022-12-31T22:51:55.281Z,99.70
2022-12-31T22:54:17.161Z,99.78
2022-12-31T22:56:44.839Z,99.58
2022-12-31T22:59:12.572Z,99.90
2022-12-31T23:01:40.489Z,99.71
2022-12-31T23:04:08.228Z,100.00
2022-12-31T23:06:44.544Z,99.74
2022-12-31T23:09:34.926Z,100.00
2022-12-31T23:12:03.987Z,100.00
2022-12-31T23:14:50.318Z,100.00
2022-12-31T23:17:42.368Z,100.00
2022-12-31T23:20:35.394Z,100.00
2022-12-31T23:23:12.589Z,100.00
2022-12-31T23:25:47.244Z,100.00
2022-12-31T23:28:17.967Z,100.00
2022-12-31T23:30:45.787Z,100.00
2022-12-31T23:33:18.900Z,100.00
2022-12-31T23:35:47.048Z,100.00
2022-12-31T23:38:17.741Z,100.00
2022-12-31T23:40:46.402Z,100.00
2022-12-31T23:43:21.412Z,100.00
2022-12-31T23:45:52.974Z,100.00
2022-12-31T23:48:21.106Z,100.00
2022-12-31T23:50:53.939Z,100.00
2022-12-31T23:53:25.479Z,100.00
2022-12-31T23:55:54.210Z,100.00
2022-12-31T23:58:22.494Z,100.00
